Aérodrome :
LOGIN :

S'inscrire | Disclaimer

   EN    FR    IT 

 










Légende :    VFR   VFR Marginal   IFR   IFR Intensif   IFR Très Intensif
Visi : 
Plafond : 
>= 8 km
>= 3000ft
5 à 8 km
1000 à 3000 ft
1500m à 5 km
500 à 1000 ft
800 à 1500m
200 à 500 ft
< 800m
< 200 ft
Symboles :   Orages  Brouillard  Fortes neiges  Fortes précipitations  Vent > 20 kt
SIGMETs :   Divers  Orages  Givrage  Turbulence  Onde Orograph.  Cendres Volcan.






- Altitude de l'aérodrome : 141 ft
- Code IATA : SKS


EKSP - Srydstrup Vojens

DERNIER METAR :
  • 162220Z 17005KT 9999 BKN018 12/11 Q1007

METARs EXPIRÉS :
  • 162150Z 18004KT 9999 BKN012 SCT048 12/11 Q1007
  • 162120Z 16003KT 9999 FEW012 SCT048 11/11 Q1007
  • 162050Z 15004KT 9999 SCT012 FEW018CB SCT048 11/10 Q1007
  • 162020Z 16005KT 120V180 9999 SCT012 FEW018CB BKN048 12/11 Q1007
  • 161950Z 12002KT 9999 -SHRA FEW006 SCT018CB BKN048 12/12 Q1007
  • 161920Z 15004KT 9000 -SHRA FEW006 SCT024CB BKN048 12/11 Q1007
  • 161850Z 15006KT 110V180 9999 -SHRA FEW006 SCT028CB BKN048 12/11 Q1006
  • 161820Z 14003KT 9999 FEW006 FEW028CB BKN048 12/12 Q1006
  • 161750Z 13005KT 090V170 9999 -SHRA FEW006 FEW028CB BKN076 12/12 Q1006

TAF AMD TAF EKSP
Valide du 16 à 22h jusqu'au 17 à 21h UTC


162214Z 1622/1721 18008KT 9999 SCT025 BKN060
TEMPO 1622/1624 BKN008
TEMPO 1701/1706 1200 BCFG
TEMPO 1709/1716 4000 SHRA SCT020CB
BECMG 1713/1716 24012KT



MET'MAP, la Météo Aéronautique d'un coup d'oeil ! - Copyright ORBIFLY Décembre 2007 - Disclaimer

ORBIFLY MET'MAP TEAM :

Programmation & Développement : Alexandra Zaïnal
Sur une idée originale de : Baudouin d'Aumeries
Soutien technique & logistique : Manuel Goepfert
Assistance : Marc-Olivier Méhu




SOURCES & CREDITS :

   NOAA